Time;durP1;ratioP1;P1;durP2;ratioP2;P2;SDS_P1;SDS_P2;PMS_P1;PMS_P2;Temp;Humidity;BMP_temperature;BMP_pressure;BME280_temperature;BME280_humidity;BME280_pressure;Samples;Min_cycle;Max_cycle;Signal;HPM_P1;HPM_P2
2022/11/07 00:00:26;;;;;;;17.00;13.60;;;;;;;3.86;100.00;96059.38;5035133;28;20434;-77
2022/11/07 00:02:53;;;;;;;15.30;13.20;;;;;;;3.92;100.00;96070.53;5037385;28;20493;-77
2022/11/07 00:05:21;;;;;;;15.67;13.97;;;;;;;4.07;100.00;96091.94;5039568;28;20895;-77
2022/11/07 00:07:47;;;;;;;21.47;14.33;;;;;;;3.89;100.00;96064.03;5044440;28;20458;-77
2022/11/07 00:10:14;;;;;;;19.77;13.97;;;;;;;3.97;100.00;96059.97;5042275;28;20468;-77
2022/11/07 00:12:41;;;;;;;17.67;13.13;;;;;;;4.13;100.00;96087.38;5020801;28;20473;-77
2022/11/07 00:15:07;;;;;;;17.37;13.70;;;;;;;4.10;100.00;96080.88;5022523;28;20484;-76
2022/11/07 00:17:34;;;;;;;15.33;13.00;;;;;;;4.11;100.00;96085.06;5032935;28;20467;-76
2022/11/07 00:20:01;;;;;;;16.07;12.37;;;;;;;4.26;100.00;96104.16;5040017;28;20477;-77
2022/11/07 00:22:27;;;;;;;17.83;12.80;;;;;;;4.19;100.00;96095.91;5044058;28;20957;-76
2022/11/07 00:24:54;;;;;;;15.80;12.60;;;;;;;4.18;100.00;96079.44;5026552;28;20425;-77
2022/11/07 00:27:21;;;;;;;16.60;12.70;;;;;;;4.11;100.00;96074.59;5020930;28;20429;-77
2022/11/07 00:29:47;;;;;;;15.47;11.60;;;;;;;3.95;100.00;96055.03;5038231;28;20445;-76
2022/11/07 00:32:14;;;;;;;14.13;11.60;;;;;;;4.08;100.00;96096.09;5043620;28;20497;-77
2022/11/07 00:34:41;;;;;;;14.67;13.17;;;;;;;4.20;100.00;96119.19;5043244;28;20434;-76
2022/11/07 00:37:07;;;;;;;20.67;14.83;;;;;;;4.02;100.00;96094.66;5036978;28;20491;-77
2022/11/07 00:39:34;;;;;;;16.83;11.00;;;;;;;4.09;100.00;96113.34;5018117;28;20449;-77
2022/11/07 00:42:01;;;;;;;14.57;13.17;;;;;;;3.97;100.00;96096.56;5043777;28;20532;-76
2022/11/07 00:44:28;;;;;;;16.67;12.70;;;;;;;4.10;100.00;96106.28;5026844;28;20429;-77
2022/11/07 00:46:54;;;;;;;15.43;13.83;;;;;;;4.08;100.00;96105.78;5036931;28;20445;-77
2022/11/07 00:49:21;;;;;;;17.07;11.70;;;;;;;3.90;100.00;96089.13;5037870;28;20466;-77
2022/11/07 00:51:48;;;;;;;16.40;12.80;;;;;;;4.41;100.00;96140.53;5037974;28;20471;-77
2022/11/07 00:54:14;;;;;;;18.00;12.47;;;;;;;4.39;100.00;96150.47;5039894;28;20528;-77
2022/11/07 00:56:41;;;;;;;15.97;13.33;;;;;;;4.41;100.00;96122.19;5042549;28;20429;-76
2022/11/07 00:59:08;;;;;;;16.17;13.00;;;;;;;4.45;100.00;96142.25;5030510;28;20911;-76
2022/11/07 01:01:35;;;;;;;15.47;12.37;;;;;;;4.52;100.00;96122.75;5047499;28;20512;-76
2022/11/07 01:06:47;;;;;;;14.83;12.60;;;;;;;4.46;100.00;96135.19;5033310;28;20500;-76
2022/11/07 01:09:17;;;;;;;19.43;13.80;;;;;;;4.40;100.00;96137.09;5025654;28;20946;-76
2022/11/07 01:11:44;;;;;;;20.00;13.23;;;;;;;4.59;100.00;96159.81;5035426;28;20473;-77
2022/11/07 01:14:13;;;;;;;35.00;17.97;;;;;;;4.58;100.00;96160.88;5047710;28;20449;-77
2022/11/07 01:16:40;;;;;;;25.83;17.83;;;;;;;4.61;100.00;96160.28;5045266;28;21390;-77
2022/11/07 01:19:08;;;;;;;28.37;17.83;;;;;;;4.63;100.00;96155.53;5040262;28;20934;-76
2022/11/07 01:21:38;;;;;;;28.23;16.10;;;;;;;4.40;100.00;96112.78;5026141;28;20438;-76
2022/11/07 01:24:06;;;;;;;17.60;13.03;;;;;;;4.63;100.00;96145.06;5047224;28;21010;-77
2022/11/07 01:26:33;;;;;;;23.93;21.37;;;;;;;4.22;100.00;96083.03;5046232;28;20425;-76
2022/11/07 01:28:59;;;;;;;30.37;24.70;;;;;;;4.49;100.00;96111.03;5040587;28;20871;-77
2022/11/07 01:31:26;;;;;;;23.30;17.13;;;;;;;4.40;100.00;96089.22;5041390;28;21026;-77
2022/11/07 01:33:53;;;;;;;23.93;15.27;;;;;;;4.67;100.00;96125.88;5047326;28;20438;-77
2022/11/07 01:36:19;;;;;;;16.90;12.97;;;;;;;4.66;100.00;96134.00;5046264;28;20433;-77
2022/11/07 01:38:47;;;;;;;16.77;14.07;;;;;;;4.86;100.00;96159.78;5021129;28;20434;-77
2022/11/07 01:41:21;;;;;;;17.37;14.27;;;;;;;4.95;100.00;96165.13;5033758;28;20461;-77
2022/11/07 01:44:06;;;;;;;13.60;11.47;;;;;;;4.87;100.00;96168.41;5028489;28;20464;-77
2022/11/07 01:46:34;;;;;;;19.13;12.90;;;;;;;4.85;100.00;96165.31;5007117;28;20429;-76
2022/11/07 01:49:13;;;;;;;20.80;14.30;;;;;;;4.97;100.00;96170.81;5045167;28;20429;-77
2022/11/07 01:52:25;;;;;;;18.53;13.93;;;;;;;4.84;100.00;96166.38;5039859;28;20467;-77
2022/11/07 01:55:01;;;;;;;19.03;15.30;;;;;;;4.77;100.00;96158.91;5038722;28;20440;-76
2022/11/07 01:57:35;;;;;;;35.47;21.27;;;;;;;4.87;100.00;96158.72;5041860;28;20797;-76
2022/11/07 02:00:07;;;;;;;37.00;22.80;;;;;;;4.84;100.00;96163.75;5027557;28;20425;-76
2022/11/07 02:02:35;;;;;;;23.37;17.20;;;;;;;4.63;100.00;96145.81;5041146;28;20502;-77
2022/11/07 02:05:05;;;;;;;23.50;15.40;;;;;;;4.84;100.00;96171.63;5043978;28;20440;-77
2022/11/07 02:07:32;;;;;;;17.17;12.70;;;;;;;4.66;100.00;96141.84;5046586;28;20451;-77
2022/11/07 02:10:00;;;;;;;19.93;13.23;;;;;;;4.52;100.00;96120.91;5043112;28;20429;-76
2022/11/07 02:12:28;;;;;;;24.57;20.73;;;;;;;4.71;100.00;96147.00;5026163;28;21013;-77
2022/11/07 02:14:55;;;;;;;22.97;15.80;;;;;;;4.46;100.00;96119.47;5033195;28;20699;-77
2022/11/07 02:17:22;;;;;;;25.93;23.13;;;;;;;4.50;100.00;96115.19;5048293;28;20457;-77
2022/11/07 02:19:52;;;;;;;21.10;18.27;;;;;;;4.76;100.00;96146.88;5052857;28;20536;-77
2022/11/07 02:22:33;;;;;;;20.67;18.47;;;;;;;4.68;100.00;96150.97;5039254;28;20556;-77
2022/11/07 02:25:03;;;;;;;14.50;11.40;;;;;;;5.00;100.00;96176.25;5023799;28;20441;-77
2022/11/07 02:27:32;;;;;;;14.53;12.03;;;;;;;4.98;100.00;96182.84;5039810;28;20460;-77
2022/11/07 02:30:03;;;;;;;14.87;10.67;;;;;;;5.10;100.00;96188.38;5022955;28;20431;-77
2022/11/07 02:32:29;;;;;;;12.70;10.80;;;;;;;4.92;100.00;96169.06;5044818;28;20473;-77
2022/11/07 02:35:01;;;;;;;18.20;12.70;;;;;;;4.86;100.00;96159.00;5047290;28;20426;-77
2022/11/07 02:37:34;;;;;;;13.00;11.53;;;;;;;5.01;100.00;96187.50;5041646;28;20432;-77
2022/11/07 02:40:05;;;;;;;13.77;11.33;;;;;;;4.65;100.00;96142.91;5039180;28;20914;-77
2022/11/07 02:42:43;;;;;;;14.37;11.63;;;;;;;4.84;100.00;96158.53;5043345;28;20449;-77
2022/11/07 02:45:26;;;;;;;13.83;11.90;;;;;;;4.81;100.00;96159.91;5038011;28;20540;-77
2022/11/07 02:47:53;;;;;;;11.97;10.77;;;;;;;4.83;100.00;96170.06;5020157;28;20440;-77
2022/11/07 02:50:20;;;;;;;18.83;11.90;;;;;;;4.71;100.00;96144.38;5044538;28;21004;-77
2022/11/07 02:52:47;;;;;;;12.37;11.17;;;;;;;4.96;100.00;96179.75;5015120;28;20475;-77
2022/11/07 02:55:14;;;;;;;13.50;11.63;;;;;;;4.96;100.00;96177.91;5027871;28;20438;-77
2022/11/07 02:57:41;;;;;;;12.43;10.90;;;;;;;4.86;100.00;96159.78;5034035;28;20426;-77
2022/11/07 03:00:11;;;;;;;15.17;11.00;;;;;;;4.89;100.00;96156.56;5043822;28;21006;-77
2022/11/07 03:02:38;;;;;;;13.00;10.90;;;;;;;4.74;100.00;96131.47;5029128;28;20540;-77
2022/11/07 03:05:05;;;;;;;11.80;10.17;;;;;;;5.01;100.00;96183.03;5023462;28;20506;-76
2022/11/07 03:07:32;;;;;;;11.50;9.70;;;;;;;4.55;100.00;96120.34;5014330;28;20470;-77
2022/11/07 03:09:59;;;;;;;14.70;9.83;;;;;;;5.00;100.00;96202.44;5042608;28;20439;-77
2022/11/07 03:12:26;;;;;;;12.70;11.40;;;;;;;4.78;100.00;96170.94;5018459;28;20481;-77
2022/11/07 03:14:52;;;;;;;16.20;11.07;;;;;;;4.94;100.00;96201.00;5043435;28;20947;-77
2022/11/07 03:17:19;;;;;;;15.33;11.90;;;;;;;4.85;100.00;96188.88;5045444;28;20442;-77
2022/11/07 03:19:45;;;;;;;15.10;11.40;;;;;;;4.69;100.00;96170.84;5031876;28;20446;-77
2022/11/07 03:22:12;;;;;;;14.53;10.30;;;;;;;4.63;100.00;96163.38;5045340;28;20457;-77
2022/11/07 03:24:39;;;;;;;15.47;12.50;;;;;;;4.58;100.00;96153.78;5041572;28;20509;-77
2022/11/07 03:27:05;;;;;;;16.50;12.17;;;;;;;4.56;100.00;96153.31;5038084;28;20437;-77
2022/11/07 03:29:32;;;;;;;12.97;9.77;;;;;;;4.53;100.00;96132.16;5041815;28;20438;-77
2022/11/07 03:31:59;;;;;;;10.43;8.53;;;;;;;5.07;100.00;96201.25;5044850;28;20458;-77
2022/11/07 03:34:25;;;;;;;11.23;7.43;;;;;;;4.99;100.00;96184.41;5041902;28;20429;-77
2022/11/07 03:36:52;;;;;;;10.23;8.47;;;;;;;4.96;100.00;96183.16;5035670;28;20432;-77
2022/11/07 03:39:19;;;;;;;11.40;10.23;;;;;;;5.10;100.00;96206.72;5025994;28;20795;-77
2022/11/07 03:41:51;;;;;;;7.33;5.90;;;;;;;4.79;100.00;96158.59;5015081;28;21058;-76
2022/11/07 03:44:17;;;;;;;8.13;7.37;;;;;;;4.94;100.00;96187.91;5023193;28;20426;-77
2022/11/07 03:46:44;;;;;;;8.00;7.13;;;;;;;4.78;100.00;96163.06;5039790;28;20845;-77
2022/11/07 03:49:11;;;;;;;8.67;7.30;;;;;;;4.91;100.00;96191.09;5023410;28;20441;-77
2022/11/07 03:51:37;;;;;;;9.30;7.77;;;;;;;5.10;100.00;96213.81;5044528;28;20972;-77
2022/11/07 03:54:04;;;;;;;11.30;9.30;;;;;;;4.88;100.00;96183.84;5044973;28;21141;-77
2022/11/07 03:56:31;;;;;;;9.67;8.33;;;;;;;5.13;100.00;96215.81;5037721;28;20441;-77
2022/11/07 03:58:58;;;;;;;9.27;8.17;;;;;;;5.31;100.00;96231.41;5038507;28;20525;-77
2022/11/07 04:01:24;;;;;;;9.13;7.30;;;;;;;5.26;100.00;96215.03;5046120;28;20788;-76
2022/11/07 04:03:51;;;;;;;15.30;7.87;;;;;;;5.34;100.00;96233.47;5044004;28;20444;-76
2022/11/07 04:06:22;;;;;;;14.40;13.07;;;;;;;4.85;100.00;96168.72;5024225;28;20995;-76
2022/11/07 04:08:48;;;;;;;11.60;8.57;;;;;;;5.10;100.00;96198.84;5025725;28;20518;-76
2022/11/07 04:19:31;;;;;;;5.37;4.80;;;;;;;5.48;100.00;96215.09;5032092;28;20445;-76
2022/11/07 04:21:57;;;;;;;4.67;4.27;;;;;;;5.84;100.00;96237.88;5027818;28;20460;-76
2022/11/07 04:24:24;;;;;;;4.70;4.33;;;;;;;5.85;100.00;96240.19;5038729;28;20430;-77
2022/11/07 04:29:37;;;;;;;4.07;3.50;;;;;;;5.52;100.00;96183.78;5039825;28;20426;-76
2022/11/07 04:32:03;;;;;;;4.60;4.13;;;;;;;5.59;100.00;96213.75;5034789;28;20457;-77
2022/11/07 04:34:30;;;;;;;5.50;3.70;;;;;;;5.53;100.00;96198.44;5040864;28;20494;-76
2022/11/07 04:36:57;;;;;;;3.80;3.03;;;;;;;5.51;100.00;96195.34;5027592;28;20448;-77
2022/11/07 04:39:23;;;;;;;3.57;3.27;;;;;;;5.76;100.00;96234.13;5041817;28;20772;-77
2022/11/07 04:41:50;;;;;;;6.17;3.67;;;;;;;5.48;100.00;96182.84;5019636;28;20450;-77
2022/11/07 04:44:17;;;;;;;4.63;3.27;;;;;;;5.79;100.00;96230.91;5032176;28;20497;-77
2022/11/07 04:46:49;;;;;;;4.20;3.80;;;;;;;5.83;100.00;96225.84;5031209;28;20450;-77
2022/11/07 04:49:16;;;;;;;4.17;3.43;;;;;;;5.83;100.00;96228.47;5015670;28;20512;-77
2022/11/07 04:51:43;;;;;;;3.50;3.23;;;;;;;5.83;100.00;96241.56;5032655;28;20468;-77
2022/11/07 04:54:15;;;;;;;4.27;3.87;;;;;;;5.90;100.00;96255.88;5014157;28;20492;-77
2022/11/07 04:56:41;;;;;;;4.63;3.40;;;;;;;5.25;100.00;96176.78;5044007;28;20976;-77
2022/11/07 04:59:08;;;;;;;3.93;2.87;;;;;;;5.73;100.00;96252.28;5031929;28;20470;-77
2022/11/07 05:01:34;;;;;;;6.10;3.50;;;;;;;5.69;100.00;96254.72;5030441;28;20533;-77
2022/11/07 05:04:01;;;;;;;4.57;3.97;;;;;;;5.39;100.00;96224.72;5030486;28;20930;-77
2022/11/07 05:06:31;;;;;;;4.97;4.47;;;;;;;5.71;100.00;96260.44;5030771;28;20774;-77
2022/11/07 05:08:57;;;;;;;4.57;4.17;;;;;;;5.41;100.00;96206.84;5030955;28;20449;-77
2022/11/07 05:11:24;;;;;;;5.53;4.90;;;;;;;5.56;100.00;96237.97;5031642;28;20465;-77
2022/11/07 05:13:50;;;;;;;5.47;4.97;;;;;;;5.60;100.00;96251.25;5030568;28;20469;-77
2022/11/07 05:16:17;;;;;;;8.10;7.30;;;;;;;5.46;100.00;96234.78;5030449;28;20441;-77
2022/11/07 05:18:44;;;;;;;6.30;5.70;;;;;;;5.30;100.00;96208.91;5032108;28;20426;-77
2022/11/07 05:21:10;;;;;;;5.67;5.07;;;;;;;5.44;100.00;96234.31;5030331;28;20446;-77
2022/11/07 05:23:37;;;;;;;4.73;4.33;;;;;;;5.60;100.00;96264.38;5030595;28;20446;-77
2022/11/07 05:26:04;;;;;;;5.20;4.70;;;;;;;5.40;100.00;96236.75;5030405;28;20942;-77
2022/11/07 05:28:31;;;;;;;6.70;5.17;;;;;;;5.36;100.00;96232.41;5030220;28;20434;-77
2022/11/07 05:31:06;;;;;;;7.53;5.77;;;;;;;5.24;100.00;96212.69;5040042;28;20428;-78
2022/11/07 05:33:33;;;;;;;6.37;5.70;;;;;;;5.45;100.00;96239.25;5016794;28;20510;-77
2022/11/07 05:36:12;;;;;;;6.87;5.73;;;;;;;5.54;100.00;96241.97;5020793;28;20449;-78
2022/11/07 05:38:40;;;;;;;12.50;8.80;;;;;;;5.70;100.00;96251.03;5031537;28;20434;-77
2022/11/07 05:41:07;;;;;;;13.50;9.63;;;;;;;5.69;100.00;96248.72;5033968;28;20433;-77
2022/11/07 05:43:34;;;;;;;19.37;12.50;;;;;;;5.44;100.00;96215.94;5033851;28;20473;-77
2022/11/07 05:46:00;;;;;;;12.20;9.10;;;;;;;5.45;100.00;96223.50;5017508;28;20532;-78
2022/11/07 05:48:27;;;;;;;8.80;6.07;;;;;;;5.39;100.00;96245.69;5041086;28;20516;-78
2022/11/07 05:50:54;;;;;;;9.07;6.13;;;;;;;5.41;100.00;96261.13;5034880;28;20459;-78
2022/11/07 05:53:21;;;;;;;6.17;5.57;;;;;;;5.03;100.00;96211.56;5024124;28;21077;-77
2022/11/07 05:55:47;;;;;;;4.83;4.33;;;;;;;5.30;100.00;96274.44;5052755;28;20448;-77
2022/11/07 05:58:14;;;;;;;9.13;5.00;;;;;;;4.95;100.00;96236.63;5028950;28;20526;-77
2022/11/07 06:00:41;;;;;;;5.10;4.37;;;;;;;4.99;100.00;96244.66;5026900;28;20450;-77
2022/11/07 06:03:08;;;;;;;4.97;4.00;;;;;;;5.20;100.00;96276.47;5034502;28;20512;-78
2022/11/07 06:05:39;;;;;;;4.90;4.47;;;;;;;4.98;100.00;96250.97;5019143;28;20824;-78
2022/11/07 06:08:09;;;;;;;5.90;5.23;;;;;;;4.94;100.00;96245.53;5036172;28;20430;-77
2022/11/07 06:10:37;;;;;;;5.73;5.17;;;;;;;5.09;100.00;96259.41;5033797;28;20805;-78
2022/11/07 06:13:06;;;;;;;5.10;4.60;;;;;;;5.25;100.00;96269.28;5034842;28;20915;-77
2022/11/07 06:15:35;;;;;;;6.87;6.30;;;;;;;5.43;100.00;96291.22;5033403;28;20441;-77
2022/11/07 06:18:04;;;;;;;9.70;5.77;;;;;;;5.48;100.00;96295.59;5033285;28;20430;-76
2022/11/07 06:20:32;;;;;;;6.50;4.97;;;;;;;5.13;100.00;96242.81;5033235;28;20462;-77
2022/11/07 06:23:01;;;;;;;12.47;6.60;;;;;;;5.51;100.00;96292.38;5034408;28;20450;-77
2022/11/07 06:25:28;;;;;;;8.10;4.80;;;;;;;5.24;100.00;96240.75;5034572;28;20926;-77
2022/11/07 06:28:00;;;;;;;5.20;4.10;;;;;;;5.26;100.00;96252.50;5017550;28;20830;-79
2022/11/07 06:30:27;;;;;;;5.70;5.10;;;;;;;5.20;100.00;96245.03;5040373;28;20974;-78
2022/11/07 06:32:54;;;;;;;5.90;4.73;;;;;;;5.19;100.00;96235.59;5032308;28;20523;-78
2022/11/07 06:35:21;;;;;;;5.30;4.80;;;;;;;5.55;100.00;96295.94;5040240;28;20952;-78
2022/11/07 06:37:48;;;;;;;5.53;5.13;;;;;;;5.30;100.00;96263.16;5018234;28;20443;-77
2022/11/07 06:40:14;;;;;;;10.60;8.60;;;;;;;5.50;100.00;96301.31;5049768;28;20427;-78
2022/11/07 06:42:41;;;;;;;13.17;7.27;;;;;;;5.57;100.00;96304.28;5032810;28;20497;-78
2022/11/07 06:45:08;;;;;;;8.10;6.50;;;;;;;5.27;100.00;96258.50;5040319;28;20441;-78
2022/11/07 06:47:35;;;;;;;7.43;6.00;;;;;;;4.12;100.00;96085.81;5039979;28;20705;-78
2022/11/07 06:50:02;;;;;;;7.50;6.73;;;;;;;5.37;100.00;96276.66;5047665;28;20435;-78
2022/11/07 06:52:29;;;;;;;7.63;6.57;;;;;;;5.14;100.00;96233.88;5002899;28;20549;-78
2022/11/07 06:54:55;;;;;;;7.13;5.40;;;;;;;5.61;100.00;96305.28;5038315;28;20469;-78
2022/11/07 06:57:22;;;;;;;7.00;6.23;;;;;;;5.67;100.00;96309.34;5040565;28;20430;-78
2022/11/07 06:59:49;;;;;;;6.97;6.30;;;;;;;5.60;100.00;96287.97;5042107;28;20443;-81
2022/11/07 07:02:17;;;;;;;15.93;9.53;;;;;;;5.73;100.00;96317.84;5045553;28;20491;-81
2022/11/07 07:05:04;;;;;;;11.03;7.27;;;;;;;5.79;100.00;96327.97;5033453;28;20432;-81
2022/11/07 07:07:31;;;;;;;9.03;7.00;;;;;;;5.93;100.00;96341.09;5023000;28;20842;-81
2022/11/07 07:09:58;;;;;;;9.20;7.20;;;;;;;5.82;100.00;96323.97;5050048;28;20489;-81
2022/11/07 07:12:25;;;;;;;6.23;5.63;;;;;;;5.72;100.00;96322.34;5034322;28;20446;-81
2022/11/07 07:14:52;;;;;;;6.80;5.50;;;;;;;5.36;100.00;96248.13;5050571;28;20460;-81
2022/11/07 07:17:18;;;;;;;7.20;6.30;;;;;;;5.49;100.00;96260.44;5049303;28;20491;-81
2022/11/07 07:19:45;;;;;;;7.53;6.30;;;;;;;4.94;100.00;96189.72;5060651;28;20473;-81
2022/11/07 07:22:12;;;;;;;6.37;5.77;;;;;;;6.13;100.00;96358.22;5047204;28;20434;-81
2022/11/07 07:24:39;;;;;;;7.87;5.60;;;;;;;6.04;100.00;96339.78;5060805;28;20433;-81
2022/11/07 07:27:06;;;;;;;7.00;6.40;;;;;;;6.08;100.00;96347.84;5020700;28;20470;-81
2022/11/07 07:29:33;;;;;;;7.47;6.67;;;;;;;5.67;100.00;96287.56;5050336;28;20433;-81
2022/11/07 07:31:59;;;;;;;6.97;6.27;;;;;;;6.03;100.00;96343.50;5038964;28;20451;-81
2022/11/07 07:34:26;;;;;;;8.27;6.50;;;;;;;6.03;100.00;96358.47;5032300;28;20479;-81
2022/11/07 07:36:53;;;;;;;6.13;5.43;;;;;;;5.61;100.00;96274.59;5051811;28;20471;-81
2022/11/07 07:39:20;;;;;;;8.40;6.60;;;;;;;5.64;100.00;96274.00;5051830;28;20456;-81
2022/11/07 07:41:48;;;;;;;6.60;5.50;;;;;;;6.24;100.00;96362.19;5052394;28;20457;-81
2022/11/07 07:44:19;;;;;;;8.23;7.40;;;;;;;5.91;100.00;96317.00;5072009;28;20441;-81
2022/11/07 07:46:46;;;;;;;7.00;6.30;;;;;;;5.92;100.00;96310.66;5037756;28;20441;-81
2022/11/07 07:49:12;;;;;;;7.13;5.97;;;;;;;5.87;100.00;96315.97;5052375;28;20429;-81
2022/11/07 07:51:39;;;;;;;8.40;6.30;;;;;;;5.14;100.00;96191.94;5051563;28;20523;-81
2022/11/07 07:54:06;;;;;;;7.53;6.70;;;;;;;6.10;100.00;96349.09;5053387;28;20453;-82
2022/11/07 07:56:32;;;;;;;8.30;6.30;;;;;;;6.40;100.00;96375.72;5065665;28;20434;-81
2022/11/07 07:58:59;;;;;;;9.23;7.03;;;;;;;6.42;100.00;96378.84;5063474;28;20516;-82
2022/11/07 08:01:26;;;;;;;7.37;6.00;;;;;;;6.16;100.00;96324.31;5043544;28;20505;-81
2022/11/07 08:03:52;;;;;;;6.60;5.57;;;;;;;6.30;100.00;96331.34;5063706;28;20505;-81
2022/11/07 08:06:29;;;;;;;5.27;4.80;;;;;;;6.26;100.00;96325.13;5062603;28;20424;-81
2022/11/07 08:08:55;;;;;;;7.40;6.27;;;;;;;6.44;100.00;96348.59;5063231;28;20410;-81
2022/11/07 08:11:22;;;;;;;6.37;5.53;;;;;;;6.38;100.00;96331.38;5061290;28;20458;-81
2022/11/07 08:13:49;;;;;;;6.60;5.80;;;;;;;6.52;100.00;96353.13;5046299;28;20495;-81
2022/11/07 08:16:15;;;;;;;7.30;6.50;;;;;;;6.53;100.00;96340.75;5025190;28;20442;-81
2022/11/07 08:18:42;;;;;;;6.43;5.70;;;;;;;6.81;100.00;96355.31;5047210;28;20871;-81
2022/11/07 08:21:09;;;;;;;6.23;4.90;;;;;;;6.72;100.00;96337.94;5058361;28;20477;-81
2022/11/07 08:23:35;;;;;;;4.50;4.10;;;;;;;6.05;100.00;96227.72;5058417;28;20453;-81
2022/11/07 08:26:03;;;;;;;5.20;4.40;;;;;;;6.91;100.00;96340.34;5035219;28;20502;-82
2022/11/07 08:28:34;;;;;;;6.23;5.00;;;;;;;6.87;100.00;96321.03;5047946;28;20455;-81
2022/11/07 08:31:10;;;;;;;8.23;4.97;;;;;;;7.45;100.00;96399.69;5035988;28;20439;-81
2022/11/07 08:33:37;;;;;;;5.37;4.87;;;;;;;7.27;100.00;96371.78;5057850;28;20497;-82
2022/11/07 08:36:05;;;;;;;5.30;4.37;;;;;;;7.31;100.00;96370.84;5047279;28;20423;-81
2022/11/07 08:38:34;;;;;;;4.83;4.40;;;;;;;7.16;100.00;96338.94;5042423;28;20466;-82
2022/11/07 08:41:02;;;;;;;5.17;4.43;;;;;;;7.58;100.00;96382.25;5040972;28;20803;-81
2022/11/07 08:43:30;;;;;;;6.70;4.10;;;;;;;7.68;100.00;96398.53;5035234;28;20485;-82
2022/11/07 08:45:56;;;;;;;4.00;3.60;;;;;;;7.62;100.00;96388.47;5054122;28;20430;-81
2022/11/07 08:48:23;;;;;;;5.23;4.73;;;;;;;7.86;100.00;96403.84;5038894;28;20436;-81
2022/11/07 08:50:55;;;;;;;4.17;3.83;;;;;;;7.84;100.00;96387.56;5057963;28;20457;-81
2022/11/07 08:53:24;;;;;;;4.13;3.63;;;;;;;7.89;100.00;96408.50;5052175;28;20818;-81
2022/11/07 08:55:50;;;;;;;5.50;4.73;;;;;;;7.88;100.00;96409.56;5054429;28;20516;-81
2022/11/07 08:58:18;;;;;;;4.17;3.73;;;;;;;8.11;100.00;96404.97;5012500;28;20478;-81
2022/11/07 09:00:45;;;;;;;6.33;3.97;;;;;;;8.00;100.00;96407.88;5054640;28;20497;-81
2022/11/07 09:03:12;;;;;;;5.97;4.10;;;;;;;7.51;100.00;96339.84;5033092;28;20489;-82
2022/11/07 09:05:59;;;;;;;4.23;3.67;;;;;;;8.19;100.00;96415.53;5019091;28;20450;-81
2022/11/07 09:08:26;;;;;;;5.70;3.20;;;;;;;8.25;100.00;96401.09;5046503;28;20513;-81
2022/11/07 09:10:53;;;;;;;4.20;3.77;;;;;;;8.46;100.00;96411.09;5047838;28;20430;-81
2022/11/07 09:13:20;;;;;;;8.63;4.03;;;;;;;8.34;100.00;96410.88;5057101;28;20975;-81
2022/11/07 09:15:46;;;;;;;5.13;3.50;;;;;;;8.33;100.00;96407.47;5057143;28;20461;-81
2022/11/07 09:18:18;;;;;;;4.00;3.70;;;;;;;8.57;100.00;96425.50;5061531;28;20426;-81
2022/11/07 09:20:45;;;;;;;3.80;3.40;;;;;;;8.41;100.00;96404.09;5039363;28;20449;-81
2022/11/07 09:23:12;;;;;;;4.13;3.33;;;;;;;8.40;100.00;96404.41;5039766;28;20451;-82
2022/11/07 09:25:39;;;;;;;5.80;3.63;;;;;;;8.61;100.00;96431.69;5064715;28;20445;-80
2022/11/07 09:28:06;;;;;;;3.97;3.60;;;;;;;8.42;100.00;96402.25;5034767;28;20446;-80
2022/11/07 09:30:32;;;;;;;3.10;2.80;;;;;;;8.36;100.00;96398.97;5067093;28;20440;-80
2022/11/07 09:32:59;;;;;;;2.97;2.77;;;;;;;8.35;100.00;96399.28;5046956;28;20457;-80
2022/11/07 09:35:26;;;;;;;4.10;3.77;;;;;;;8.32;100.00;96392.75;5058150;28;20445;-81
2022/11/07 09:37:53;;;;;;;3.87;3.13;;;;;;;8.56;100.00;96435.28;5060205;28;20433;-81
2022/11/07 09:40:29;;;;;;;9.70;5.60;;;;;;;8.56;100.00;96431.88;5065004;28;20469;-81
2022/11/07 09:43:19;;;;;;;6.97;4.37;;;;;;;8.70;100.00;96432.47;5048896;28;20457;-81
2022/11/07 09:46:25;;;;;;;6.77;3.73;;;;;;;8.66;100.00;96428.13;5036066;28;20524;-81
2022/11/07 09:49:11;;;;;;;4.07;3.17;;;;;;;8.70;100.00;96429.84;5033443;28;20426;-81
2022/11/07 09:51:41;;;;;;;11.03;4.30;;;;;;;8.57;100.00;96404.41;5041684;28;20418;-81
2022/11/07 09:54:17;;;;;;;3.80;3.43;;;;;;;8.82;100.00;96439.75;5064694;28;20496;-81
2022/11/07 09:56:45;;;;;;;4.60;3.50;;;;;;;8.66;100.00;96418.34;5059393;28;20485;-82
2022/11/07 09:59:24;;;;;;;3.50;3.20;;;;;;;8.67;100.00;96424.41;5040460;28;20982;-81
2022/11/07 10:01:51;;;;;;;5.80;4.07;;;;;;;7.62;100.00;96278.72;5050310;28;20444;-81
2022/11/07 10:04:21;;;;;;;9.77;4.00;;;;;;;8.27;100.00;96377.88;5043817;28;20426;-81
2022/11/07 10:06:58;;;;;;;4.00;3.23;;;;;;;8.75;100.00;96449.97;5044526;28;20446;-81
2022/11/07 10:09:38;;;;;;;3.90;3.50;;;;;;;8.73;100.00;96439.75;5064115;28;20426;-81
2022/11/07 10:12:27;;;;;;;5.00;4.17;;;;;;;8.69;100.00;96454.66;5057631;28;20453;-81
2022/11/07 10:15:02;;;;;;;3.50;3.20;;;;;;;8.85;100.00;96441.75;5068583;28;20478;-81
2022/11/07 10:18:01;;;;;;;4.27;3.63;;;;;;;8.88;100.00;96447.19;5058744;28;20437;-81
2022/11/07 10:20:36;;;;;;;5.50;3.60;;;;;;;8.97;100.00;96449.81;5064278;28;20453;-81
2022/11/07 10:23:23;;;;;;;3.60;3.30;;;;;;;8.70;100.00;96414.03;5066141;28;21021;-81
2022/11/07 10:26:03;;;;;;;3.90;3.60;;;;;;;9.09;100.00;96436.78;5045620;28;20441;-81
2022/11/07 10:28:30;;;;;;;5.23;3.73;;;;;;;8.63;100.00;96352.31;5060579;28;20433;-81
2022/11/07 10:31:00;;;;;;;3.43;3.13;;;;;;;9.22;100.00;96444.81;5037916;28;20509;-81
2022/11/07 10:33:53;;;;;;;4.47;3.40;;;;;;;9.12;100.00;96440.66;5036703;28;20474;-81
2022/11/07 10:36:28;;;;;;;4.73;3.73;;;;;;;8.85;100.00;96396.94;5034094;28;20474;-81
2022/11/07 10:38:56;;;;;;;3.37;2.83;;;;;;;9.29;100.00;96434.53;5041109;28;20477;-81
2022/11/07 10:41:27;;;;;;;3.40;3.10;;;;;;;9.25;100.00;96439.69;5035430;28;20458;-81
2022/11/07 10:43:57;;;;;;;3.70;3.23;;;;;;;9.24;100.00;96442.63;5055215;28;20436;-81
2022/11/07 10:46:31;;;;;;;6.73;3.60;;;;;;;9.17;100.00;96425.41;5054174;28;20438;-81
2022/11/07 10:49:00;;;;;;;4.53;3.37;;;;;;;9.25;100.00;96434.41;5041435;28;20438;-81
2022/11/07 10:51:37;;;;;;;4.50;3.20;;;;;;;9.56;100.00;96436.78;5060900;28;20545;-81
2022/11/07 10:54:06;;;;;;;6.00;3.30;;;;;;;9.64;100.00;96419.38;5058616;28;20471;-81
2022/11/07 10:56:43;;;;;;;5.93;3.77;;;;;;;9.85;100.00;96440.53;5054030;28;20477;-82
2022/11/07 10:59:23;;;;;;;3.40;3.10;;;;;;;9.58;100.00;96373.88;5037843;28;20505;-81
2022/11/07 11:01:53;;;;;;;9.63;2.73;;;;;;;9.33;100.00;96359.72;5045387;28;20465;-81
2022/11/07 11:04:26;;;;;;;4.60;3.10;;;;;;;9.06;100.00;96310.00;5054701;28;20442;-81
2022/11/07 11:07:02;;;;;;;3.20;2.90;;;;;;;9.87;100.00;96435.72;5057926;28;20561;-82
2022/11/07 11:09:34;;;;;;;2.77;2.53;;;;;;;9.89;100.00;96426.41;5061969;28;20518;-81
2022/11/07 11:12:09;;;;;;;3.27;2.77;;;;;;;9.53;100.00;96384.63;5048537;28;20458;-81
2022/11/07 11:14:36;;;;;;;5.27;3.20;;;;;;;9.69;100.00;96433.16;5043989;28;20457;-82
2022/11/07 11:17:04;;;;;;;3.20;2.50;;;;;;;9.83;100.00;96434.81;5037787;28;20450;-81
2022/11/07 11:19:40;;;;;;;3.70;2.17;;;;;;;9.92;100.00;96425.75;5056776;28;20445;-82
2022/11/07 11:22:16;;;;;;;5.37;3.80;;;;;;;9.91;100.00;96387.25;5055468;28;20446;-81
2022/11/07 11:24:43;;;;;;;2.20;2.00;;;;;;;9.45;100.00;96280.66;5058722;28;20435;-81
2022/11/07 11:27:18;;;;;;;5.00;2.63;;;;;;;10.32;100.00;96391.03;5062804;28;20533;-82
2022/11/07 11:29:57;;;;;;;5.03;3.23;;;;;;;10.51;100.00;96422.31;5048987;28;20418;-81
2022/11/07 11:32:50;;;;;;;3.53;2.50;;;;;;;10.31;100.00;96366.50;5039596;28;20453;-81
2022/11/07 11:35:33;;;;;;;3.03;2.50;;;;;;;10.83;100.00;96423.47;5022688;28;20462;-82
2022/11/07 11:38:27;;;;;;;4.17;2.80;;;;;;;10.36;100.00;96394.59;5046858;28;20441;-81
2022/11/07 11:41:20;;;;;;;3.87;2.80;;;;;;;10.18;100.00;96359.56;5040486;28;20449;-81
2022/11/07 11:43:57;;;;;;;3.00;2.33;;;;;;;10.34;100.00;96394.13;5043913;28;20531;-81
2022/11/07 11:46:37;;;;;;;3.93;2.47;;;;;;;10.25;100.00;96365.13;5056638;28;20434;-82
2022/11/07 11:49:12;;;;;;;4.23;2.30;;;;;;;10.63;100.00;96401.22;5059444;28;20442;-81
2022/11/07 11:51:54;;;;;;;5.90;3.10;;;;;;;10.12;100.00;96334.41;5064285;28;20445;-81